createdAt,value
2022-12-13T00:01:51.955Z,26.23
2022-12-13T00:04:21.011Z,25.03
2022-12-13T00:06:48.940Z,25.13
2022-12-13T00:09:18.681Z,22.93
2022-12-13T00:11:46.176Z,27.40
2022-12-13T00:14:14.109Z,31.10
2022-12-13T00:16:45.633Z,27.47
2022-12-13T00:19:13.136Z,25.83
2022-12-13T00:21:40.564Z,24.90
2022-12-13T00:24:08.200Z,24.20
2022-12-13T00:26:35.254Z,24.77
2022-12-13T00:29:07.428Z,24.47
2022-12-13T00:34:22.620Z,28.13
2022-12-13T00:36:49.800Z,28.10
2022-12-13T00:39:19.102Z,24.83
2022-12-13T00:41:47.216Z,24.37
2022-12-13T00:44:15.006Z,27.67
2022-12-13T00:46:43.096Z,27.33
2022-12-13T00:49:12.812Z,22.83
2022-12-13T00:51:40.836Z,22.73
2022-12-13T00:54:07.834Z,25.30
2022-12-13T00:56:34.685Z,25.60
2022-12-13T00:59:01.613Z,21.60
2022-12-13T01:01:32.745Z,24.27
2022-12-13T01:04:03.093Z,25.13
2022-12-13T01:06:39.367Z,23.73
2022-12-13T01:09:14.375Z,28.80
2022-12-13T01:11:41.112Z,24.53
2022-12-13T01:14:07.823Z,24.40
2022-12-13T01:16:34.711Z,25.63
2022-12-13T01:19:01.552Z,23.00
2022-12-13T01:21:29.856Z,20.70
2022-12-13T01:24:05.282Z,23.63
2022-12-13T01:26:33.638Z,22.93
2022-12-13T01:29:00.716Z,22.03
2022-12-13T01:31:27.952Z,27.07
2022-12-13T01:33:54.870Z,24.83
2022-12-13T01:36:27.511Z,23.70
2022-12-13T01:38:58.672Z,23.33
2022-12-13T01:41:28.681Z,23.30
2022-12-13T01:44:03.433Z,25.53
2022-12-13T01:46:34.803Z,24.73
2022-12-13T01:49:19.329Z,25.13
2022-12-13T01:52:02.848Z,24.80
2022-12-13T01:54:36.430Z,25.23
2022-12-13T01:57:08.512Z,20.60
2022-12-13T01:59:41.587Z,24.30
2022-12-13T02:02:12.605Z,22.60
2022-12-13T02:04:59.910Z,22.37
2022-12-13T02:07:34.116Z,19.63
2022-12-13T02:10:06.243Z,21.90
2022-12-13T02:12:36.660Z,19.17
2022-12-13T02:15:11.630Z,22.10
2022-12-13T02:18:20.499Z,23.63
2022-12-13T02:21:04.319Z,22.27
2022-12-13T02:23:52.527Z,21.53
2022-12-13T02:26:52.034Z,21.93
2022-12-13T02:30:04.393Z,19.03
2022-12-13T02:32:41.626Z,23.03
2022-12-13T02:35:25.909Z,21.00
2022-12-13T02:38:44.903Z,21.00
2022-12-13T02:41:50.745Z,22.83
2022-12-13T02:44:31.645Z,21.97
2022-12-13T02:47:06.695Z,23.97
2022-12-13T02:49:46.996Z,24.80
2022-12-13T02:52:22.492Z,25.37
2022-12-13T02:54:49.737Z,22.67
2022-12-13T02:57:38.713Z,22.97
2022-12-13T03:00:11.369Z,20.50
2022-12-13T03:03:18.614Z,22.17
2022-12-13T03:06:34.225Z,19.67
2022-12-13T03:09:28.113Z,21.00
2022-12-13T03:12:51.681Z,18.80
2022-12-13T03:15:34.369Z,21.00
2022-12-13T03:18:17.261Z,24.33
2022-12-13T03:21:01.150Z,21.73
2022-12-13T03:23:28.772Z,23.47
2022-12-13T03:26:01.857Z,21.90
2022-12-13T03:28:28.921Z,21.60
2022-12-13T03:30:55.694Z,21.13
2022-12-13T03:33:22.729Z,23.30
2022-12-13T03:35:49.689Z,23.37
2022-12-13T03:38:22.154Z,20.77
2022-12-13T03:40:58.945Z,20.40
2022-12-13T03:43:26.337Z,21.20
2022-12-13T03:45:54.241Z,22.80
2022-12-13T03:48:23.244Z,20.30
2022-12-13T03:50:53.547Z,20.77
2022-12-13T03:53:33.481Z,21.93
2022-12-13T03:56:04.869Z,21.73
2022-12-13T03:58:36.220Z,23.10
2022-12-13T04:01:13.649Z,25.27
2022-12-13T04:03:43.815Z,22.97
2022-12-13T04:06:11.512Z,22.17
2022-12-13T04:08:39.373Z,23.37
2022-12-13T04:11:25.338Z,25.80
2022-12-13T04:13:54.382Z,22.00
2022-12-13T04:16:23.235Z,25.27
2022-12-13T04:18:50.310Z,27.30
2022-12-13T04:21:17.144Z,26.27
2022-12-13T04:23:43.992Z,24.97
2022-12-13T04:26:10.758Z,29.73
2022-12-13T04:28:37.504Z,25.43
2022-12-13T04:31:04.523Z,26.03
2022-12-13T04:33:32.638Z,23.17
2022-12-13T04:35:59.826Z,28.67
2022-12-13T04:38:26.912Z,27.40
2022-12-13T04:40:53.684Z,27.37
2022-12-13T04:43:20.444Z,26.53
2022-12-13T04:45:47.286Z,24.17
2022-12-13T04:48:30.535Z,30.37
2022-12-13T04:50:58.948Z,26.67
2022-12-13T04:53:30.020Z,29.03
2022-12-13T04:55:57.228Z,28.77
2022-12-13T04:58:23.992Z,31.77
2022-12-13T05:00:50.764Z,35.83
2022-12-13T05:03:17.562Z,32.83
2022-12-13T05:05:44.360Z,34.63
2022-12-13T05:08:11.306Z,34.33
2022-12-13T05:10:38.298Z,38.67
2022-12-13T05:13:06.156Z,42.20
2022-12-13T05:15:33.968Z,43.07
2022-12-13T05:18:09.516Z,45.00
2022-12-13T05:20:37.643Z,50.07
2022-12-13T05:23:04.360Z,47.57
2022-12-13T05:25:31.053Z,50.47
2022-12-13T05:27:57.855Z,46.10
2022-12-13T05:30:24.678Z,54.50
2022-12-13T05:32:51.407Z,49.73
2022-12-13T05:35:23.195Z,53.30
2022-12-13T05:37:55.315Z,52.87
2022-12-13T05:40:24.044Z,56.97
2022-12-13T05:42:50.929Z,50.60
2022-12-13T05:45:19.567Z,53.27
2022-12-13T05:47:47.767Z,59.17
2022-12-13T05:50:16.752Z,50.27
2022-12-13T05:52:44.221Z,51.37
2022-12-13T05:55:12.216Z,53.00
2022-12-13T05:57:39.177Z,55.97
2022-12-13T06:00:29.018Z,50.73
2022-12-13T06:02:56.500Z,54.90
2022-12-13T06:05:27.639Z,49.63
2022-12-13T06:07:57.635Z,56.27
2022-12-13T06:10:25.057Z,57.77
2022-12-13T06:13:21.545Z,52.90
2022-12-13T06:16:00.981Z,51.43
2022-12-13T06:18:30.996Z,56.93
2022-12-13T06:21:04.008Z,49.40
2022-12-13T06:23:32.607Z,45.40
2022-12-13T06:26:02.010Z,44.17
2022-12-13T06:28:29.010Z,47.03
2022-12-13T06:30:59.481Z,45.17
2022-12-13T06:33:26.222Z,52.40
2022-12-13T06:35:58.928Z,55.53
2022-12-13T06:38:31.541Z,52.47
2022-12-13T06:41:11.557Z,54.53
2022-12-13T06:43:42.275Z,54.87
2022-12-13T06:46:09.801Z,55.63
2022-12-13T06:48:36.835Z,54.77
2022-12-13T06:51:05.123Z,60.07
2022-12-13T06:53:32.772Z,48.67
2022-12-13T06:56:08.636Z,56.43
2022-12-13T06:58:36.963Z,53.23
2022-12-13T07:01:23.852Z,53.80
2022-12-13T07:03:54.170Z,51.43
2022-12-13T07:06:23.614Z,55.47
2022-12-13T07:08:57.137Z,50.33
2022-12-13T07:11:28.012Z,54.80
2022-12-13T07:13:55.793Z,52.67
2022-12-13T07:16:24.183Z,54.90
2022-12-13T07:19:00.700Z,54.27
2022-12-13T07:21:29.366Z,51.80
2022-12-13T07:23:56.485Z,53.93
2022-12-13T07:26:23.657Z,48.77
2022-12-13T07:28:55.058Z,53.13
2022-12-13T07:31:24.109Z,51.80
2022-12-13T07:33:51.175Z,49.70
2022-12-13T07:36:21.932Z,48.70
2022-12-13T07:38:57.462Z,50.53
2022-12-13T07:41:26.129Z,54.53
2022-12-13T07:43:55.262Z,46.80
2022-12-13T07:46:32.323Z,53.30
2022-12-13T07:49:02.889Z,53.20
2022-12-13T07:51:29.814Z,50.90
2022-12-13T07:53:57.543Z,48.10
2022-12-13T07:56:24.265Z,52.47
2022-12-13T07:58:51.232Z,50.17
2022-12-13T08:01:18.518Z,52.47
2022-12-13T08:03:48.712Z,52.57
2022-12-13T08:06:15.751Z,52.03
2022-12-13T08:08:42.772Z,54.50
2022-12-13T08:11:13.858Z,55.27
2022-12-13T08:13:41.429Z,56.50
2022-12-13T08:16:27.597Z,50.73
2022-12-13T08:19:02.885Z,52.77
2022-12-13T08:21:57.164Z,50.77
2022-12-13T08:24:27.599Z,51.93
2022-12-13T08:27:02.190Z,48.47
2022-12-13T08:29:34.685Z,47.87
2022-12-13T08:32:11.667Z,52.33
2022-12-13T08:34:39.181Z,47.07
2022-12-13T08:37:06.129Z,51.13
2022-12-13T08:39:36.575Z,48.67
2022-12-13T08:42:19.445Z,48.43
2022-12-13T08:44:52.321Z,48.37
2022-12-13T08:47:25.992Z,46.17
2022-12-13T08:50:04.026Z,39.80
2022-12-13T08:52:40.381Z,38.97
2022-12-13T08:55:13.606Z,36.83
2022-12-13T08:57:42.788Z,38.87
2022-12-13T09:00:17.241Z,38.67
2022-12-13T09:02:44.540Z,38.07
2022-12-13T09:05:12.988Z,39.40
2022-12-13T09:07:41.064Z,44.30
2022-12-13T09:10:26.961Z,38.43
2022-12-13T09:13:01.327Z,35.70
2022-12-13T09:15:33.960Z,38.23
2022-12-13T09:18:05.164Z,40.73
2022-12-13T09:20:41.211Z,31.00
2022-12-13T09:23:13.902Z,33.70
2022-12-13T09:25:56.082Z,34.50
2022-12-13T09:28:33.103Z,35.63
2022-12-13T09:30:59.806Z,40.67
2022-12-13T09:33:30.009Z,31.87
2022-12-13T09:35:57.996Z,31.33
2022-12-13T09:38:27.905Z,35.03
2022-12-13T09:40:58.767Z,35.13
2022-12-13T09:43:42.628Z,35.63
2022-12-13T09:46:27.487Z,32.20
2022-12-13T09:49:13.415Z,32.23
2022-12-13T09:51:44.992Z,37.13
2022-12-13T09:54:24.159Z,31.53
2022-12-13T09:56:53.826Z,30.37
2022-12-13T09:59:29.932Z,27.60
2022-12-13T10:02:03.770Z,30.30
2022-12-13T10:04:30.551Z,28.77
2022-12-13T10:06:59.524Z,31.97
2022-12-13T10:09:26.962Z,32.40
2022-12-13T10:11:54.473Z,29.07
2022-12-13T10:14:39.626Z,34.70
2022-12-13T10:17:09.496Z,26.13
2022-12-13T10:19:44.529Z,30.20
2022-12-13T10:22:16.629Z,29.43
2022-12-13T10:24:55.356Z,26.87
2022-12-13T10:27:40.391Z,29.03
2022-12-13T10:30:13.577Z,26.97
2022-12-13T10:32:56.854Z,27.07
2022-12-13T10:35:34.446Z,28.50
2022-12-13T10:38:31.655Z,27.60
2022-12-13T10:41:01.206Z,29.03
2022-12-13T10:43:30.337Z,25.87
2022-12-13T10:46:04.072Z,26.97
2022-12-13T10:48:49.105Z,27.70
2022-12-13T10:51:20.160Z,27.80
2022-12-13T10:53:57.284Z,27.27
2022-12-13T10:56:37.249Z,26.77
2022-12-13T10:59:25.045Z,28.50
2022-12-13T11:01:52.165Z,22.17
2022-12-13T11:04:32.456Z,20.63
2022-12-13T11:07:23.057Z,25.97
2022-12-13T11:09:52.577Z,27.27
2022-12-13T11:12:27.552Z,26.80
2022-12-13T11:15:03.424Z,24.50
2022-12-13T11:17:36.535Z,26.17
2022-12-13T11:20:17.685Z,24.67
2022-12-13T11:22:44.522Z,22.10
2022-12-13T11:25:33.560Z,25.57
2022-12-13T11:28:26.519Z,27.60
2022-12-13T11:31:45.659Z,23.77
2022-12-13T11:34:59.938Z,21.10
2022-12-13T11:37:50.621Z,27.20
2022-12-13T11:40:32.744Z,24.40
2022-12-13T11:43:16.992Z,23.90
2022-12-13T11:45:54.239Z,25.80
2022-12-13T11:48:58.585Z,24.97
2022-12-13T11:51:47.632Z,21.57
2022-12-13T11:54:26.883Z,28.37
2022-12-13T11:57:00.782Z,23.43
2022-12-13T11:59:39.807Z,20.40
2022-12-13T12:02:29.407Z,21.27
2022-12-13T12:05:00.895Z,22.93
2022-12-13T12:07:53.166Z,20.67
2022-12-13T12:10:49.304Z,23.57
2022-12-13T12:13:34.086Z,24.27
2022-12-13T12:16:28.114Z,22.27
2022-12-13T12:18:55.015Z,19.47
2022-12-13T12:25:24.083Z,22.13
2022-12-13T12:28:34.380Z,23.13
2022-12-13T12:31:19.755Z,24.43
2022-12-13T12:34:15.677Z,23.60
2022-12-13T12:36:52.510Z,19.73
2022-12-13T12:39:48.462Z,21.93
2022-12-13T12:43:13.929Z,25.33
2022-12-13T12:46:24.706Z,20.80
2022-12-13T12:49:17.548Z,20.37
2022-12-13T12:52:25.198Z,22.93
2022-12-13T12:55:11.743Z,23.20
2022-12-13T12:58:02.485Z,22.23
2022-12-13T13:00:42.280Z,21.03
2022-12-13T13:03:24.263Z,18.93
2022-12-13T13:06:05.884Z,23.63
2022-12-13T13:09:04.067Z,26.17
2022-12-13T13:11:43.386Z,24.77
2022-12-13T13:14:31.533Z,20.23
2022-12-13T13:17:24.202Z,22.27
2022-12-13T13:20:15.883Z,22.87
2022-12-13T13:22:43.340Z,19.10
2022-12-13T13:25:37.181Z,21.53
2022-12-13T13:28:17.813Z,22.93
2022-12-13T13:31:10.558Z,23.60
2022-12-13T13:33:51.374Z,26.07
2022-12-13T13:36:46.599Z,18.80
2022-12-13T13:40:00.516Z,20.83
2022-12-13T13:42:30.519Z,19.03
2022-12-13T13:45:18.828Z,18.43
2022-12-13T13:48:27.399Z,19.47
2022-12-13T13:52:08.471Z,18.77
2022-12-13T13:55:12.051Z,21.70
2022-12-13T13:58:43.730Z,20.33
2022-12-13T14:02:01.373Z,19.27
2022-12-13T14:04:40.451Z,16.83
2022-12-13T14:07:40.138Z,21.77
2022-12-13T14:10:57.482Z,17.17
2022-12-13T14:14:21.652Z,18.00
2022-12-13T14:16:49.286Z,16.93
2022-12-13T14:19:56.689Z,18.50
2022-12-13T14:22:43.413Z,14.97
2022-12-13T14:25:45.091Z,17.33
2022-12-13T14:28:43.504Z,17.27
2022-12-13T14:31:43.803Z,20.30
2022-12-13T14:34:26.357Z,13.90
2022-12-13T14:37:03.022Z,12.93
2022-12-13T14:39:33.982Z,19.07
2022-12-13T14:42:20.140Z,20.43
2022-12-13T14:44:46.838Z,15.97
2022-12-13T14:47:14.832Z,14.80
2022-12-13T14:49:50.547Z,14.93
2022-12-13T14:52:27.126Z,16.13
2022-12-13T14:55:05.450Z,15.47
2022-12-13T14:57:34.951Z,17.90
2022-12-13T15:00:22.701Z,13.43
2022-12-13T15:02:57.198Z,15.33
2022-12-13T15:05:30.132Z,15.93
2022-12-13T15:07:58.303Z,14.33
2022-12-13T15:10:41.909Z,15.47
2022-12-13T15:13:31.263Z,18.57
2022-12-13T15:16:10.468Z,16.57
2022-12-13T15:18:38.449Z,17.57
2022-12-13T15:21:22.780Z,14.87
2022-12-13T15:23:51.463Z,15.07
2022-12-13T15:26:29.442Z,13.93
2022-12-13T15:29:09.839Z,15.20
2022-12-13T15:31:39.997Z,15.83
2022-12-13T15:34:30.535Z,16.57
2022-12-13T15:37:31.722Z,14.10
2022-12-13T15:40:07.316Z,15.97
2022-12-13T15:42:38.911Z,14.40
2022-12-13T15:45:19.790Z,14.37
2022-12-13T15:47:48.068Z,19.73
2022-12-13T15:50:40.032Z,16.63
2022-12-13T15:53:28.478Z,21.70
2022-12-13T15:55:55.890Z,19.27
2022-12-13T15:58:42.946Z,16.10
2022-12-13T16:01:33.443Z,20.90
2022-12-13T16:04:03.599Z,19.00
2022-12-13T16:06:33.444Z,15.93
2022-12-13T16:09:04.040Z,17.60
2022-12-13T16:11:38.273Z,23.23
2022-12-13T16:14:33.082Z,19.43
2022-12-13T16:17:22.299Z,16.17
2022-12-13T16:19:49.195Z,18.40
2022-12-13T16:22:17.660Z,17.57
2022-12-13T16:24:44.338Z,21.27
2022-12-13T16:27:11.103Z,20.13
2022-12-13T16:29:37.889Z,20.30
2022-12-13T16:32:08.368Z,19.63
2022-12-13T16:34:37.110Z,15.63
2022-12-13T16:37:08.367Z,22.23
2022-12-13T16:39:35.741Z,20.30
2022-12-13T16:42:03.048Z,20.17
2022-12-13T16:44:37.444Z,22.50
2022-12-13T16:47:12.609Z,17.37
2022-12-13T16:49:45.529Z,18.67
2022-12-13T16:52:12.299Z,18.03
2022-12-13T16:54:39.103Z,17.03
2022-12-13T16:57:06.113Z,19.80
2022-12-13T16:59:32.924Z,19.73
2022-12-13T17:01:59.683Z,26.80
2022-12-13T17:04:29.448Z,18.70
2022-12-13T17:06:56.454Z,20.27
2022-12-13T17:09:25.221Z,22.70
2022-12-13T17:11:52.207Z,22.87
2022-12-13T17:14:18.913Z,24.97
2022-12-13T17:16:45.698Z,21.10
2022-12-13T17:19:15.348Z,22.93
2022-12-13T17:21:42.078Z,16.87
2022-12-13T17:24:08.995Z,24.87
2022-12-13T17:26:35.736Z,21.50
2022-12-13T17:29:02.918Z,18.67
2022-12-13T17:31:35.171Z,22.60
2022-12-13T17:34:03.925Z,21.30
2022-12-13T17:36:31.467Z,22.37
2022-12-13T17:38:58.550Z,20.53
2022-12-13T17:41:25.503Z,19.03
2022-12-13T17:43:52.290Z,19.83
2022-12-13T17:46:19.312Z,22.57
2022-12-13T17:48:46.608Z,21.83
2022-12-13T17:51:14.002Z,19.43
2022-12-13T17:53:43.308Z,20.30
2022-12-13T17:56:13.421Z,19.17
2022-12-13T17:58:40.235Z,21.07
2022-12-13T18:01:20.896Z,20.27
2022-12-13T18:03:49.041Z,20.67
2022-12-13T18:06:16.146Z,19.77
2022-12-13T18:08:44.472Z,26.43
2022-12-13T18:14:04.609Z,24.47
2022-12-13T18:16:38.016Z,25.63
2022-12-13T18:19:08.849Z,23.27
2022-12-13T18:21:36.794Z,21.50
2022-12-13T18:24:06.390Z,22.90
2022-12-13T18:26:34.303Z,26.30
2022-12-13T18:29:01.933Z,19.37
2022-12-13T18:31:28.761Z,21.03
2022-12-13T18:33:55.865Z,20.53
2022-12-13T18:36:25.462Z,20.27
2022-12-13T18:38:53.079Z,19.73
2022-12-13T18:41:24.550Z,26.93
2022-12-13T18:44:08.075Z,21.63
2022-12-13T18:46:38.047Z,23.77
2022-12-13T18:49:06.873Z,21.90
2022-12-13T18:51:34.179Z,24.00
2022-12-13T18:54:01.008Z,19.83
2022-12-13T18:56:28.230Z,20.37
2022-12-13T18:58:56.847Z,20.20
2022-12-13T19:01:26.914Z,20.23
2022-12-13T19:03:54.359Z,21.20
2022-12-13T19:06:25.815Z,20.03
2022-12-13T19:08:56.372Z,19.63
2022-12-13T19:11:26.517Z,22.30
2022-12-13T19:13:53.962Z,19.80
2022-12-13T19:16:23.086Z,21.57
2022-12-13T19:18:50.004Z,19.97
2022-12-13T19:21:20.789Z,16.80
2022-12-13T19:23:56.508Z,19.07
2022-12-13T19:26:24.706Z,27.03
2022-12-13T19:28:51.473Z,20.03
2022-12-13T19:31:18.314Z,20.77
2022-12-13T19:33:45.077Z,18.77
2022-12-13T19:36:12.199Z,23.03
2022-12-13T19:38:40.340Z,24.87
2022-12-13T19:41:10.439Z,22.73
2022-12-13T19:43:37.702Z,20.13
2022-12-13T19:46:05.278Z,25.50
2022-12-13T19:48:32.401Z,16.67
2022-12-13T19:51:05.309Z,17.47
2022-12-13T19:53:32.554Z,20.93
2022-12-13T19:55:59.511Z,20.37
2022-12-13T19:58:27.074Z,20.80
2022-12-13T20:01:02.817Z,18.57
2022-12-13T20:03:33.665Z,19.63
2022-12-13T20:06:02.544Z,17.53
2022-12-13T20:08:30.089Z,17.03
2022-12-13T20:11:06.359Z,16.17
2022-12-13T20:13:34.309Z,18.60
2022-12-13T20:16:02.222Z,17.27
2022-12-13T20:18:28.964Z,16.83
2022-12-13T20:21:12.467Z,19.93
2022-12-13T20:23:48.945Z,19.43
2022-12-13T20:26:20.623Z,20.33
2022-12-13T20:28:48.879Z,19.93
2022-12-13T20:31:28.860Z,20.47
2022-12-13T20:33:58.221Z,20.13
2022-12-13T20:36:28.524Z,20.33
2022-12-13T20:38:59.923Z,21.13
2022-12-13T20:41:29.839Z,19.57
2022-12-13T20:43:58.751Z,16.33
2022-12-13T20:46:28.552Z,21.00
2022-12-13T20:48:57.702Z,20.27
2022-12-13T20:51:28.161Z,19.97
2022-12-13T20:53:56.366Z,18.20
2022-12-13T20:56:30.222Z,15.90
2022-12-13T20:58:57.320Z,21.27
2022-12-13T21:01:26.236Z,19.90
2022-12-13T21:03:55.285Z,14.97
2022-12-13T21:06:22.466Z,14.50
2022-12-13T21:08:51.810Z,18.90
2022-12-13T21:11:43.089Z,18.53
2022-12-13T21:14:18.848Z,17.83
2022-12-13T21:16:50.258Z,20.87
2022-12-13T21:19:24.884Z,16.73
2022-12-13T21:21:53.174Z,16.13
2022-12-13T21:24:22.426Z,20.57
2022-12-13T21:26:51.148Z,19.47
2022-12-13T21:29:18.687Z,16.17
2022-12-13T21:31:49.988Z,18.53
2022-12-13T21:34:18.383Z,15.27
2022-12-13T21:36:48.220Z,17.57
2022-12-13T21:39:18.844Z,16.60
2022-12-13T21:41:45.668Z,12.70
2022-12-13T21:44:17.250Z,15.83
2022-12-13T21:49:30.798Z,15.90
2022-12-13T21:51:57.604Z,18.23
2022-12-13T21:54:24.337Z,18.80
2022-12-13T21:57:09.669Z,18.50
2022-12-13T21:59:36.399Z,14.80
2022-12-13T22:02:17.442Z,17.40
2022-12-13T22:04:49.576Z,14.97
2022-12-13T22:07:30.233Z,19.63
2022-12-13T22:09:58.577Z,14.60
2022-12-13T22:12:35.220Z,17.90
2022-12-13T22:15:04.503Z,18.13
2022-12-13T22:17:35.649Z,14.87
2022-12-13T22:20:10.794Z,16.67
2022-12-13T22:22:42.608Z,17.73
2022-12-13T22:25:10.070Z,16.53
2022-12-13T22:27:36.884Z,17.63
2022-12-13T22:30:04.994Z,15.07
2022-12-13T22:32:32.565Z,13.07
2022-12-13T22:34:59.617Z,13.77
2022-12-13T22:37:27.227Z,14.83
2022-12-13T22:39:54.204Z,15.53
2022-12-13T22:42:21.635Z,19.17
2022-12-13T22:44:48.443Z,14.10
2022-12-13T22:47:15.863Z,16.23
2022-12-13T22:49:42.564Z,18.33
2022-12-13T22:52:09.292Z,17.60
2022-12-13T22:54:36.232Z,19.13
2022-12-13T22:57:03.617Z,15.43
2022-12-13T22:59:30.648Z,17.80
2022-12-13T23:02:02.095Z,19.33
2022-12-13T23:04:30.389Z,23.17
2022-12-13T23:06:57.338Z,19.00
2022-12-13T23:09:24.046Z,17.50
2022-12-13T23:12:09.695Z,16.30
2022-12-13T23:14:36.410Z,17.37
2022-12-13T23:17:04.076Z,17.20
2022-12-13T23:19:41.599Z,16.93
2022-12-13T23:22:19.588Z,17.20
2022-12-13T23:24:46.342Z,17.63
2022-12-13T23:27:13.059Z,17.07
2022-12-13T23:29:39.956Z,15.87
2022-12-13T23:32:06.997Z,19.07
2022-12-13T23:34:33.844Z,18.43
2022-12-13T23:37:00.591Z,15.00
2022-12-13T23:39:27.336Z,18.70
2022-12-13T23:41:54.114Z,17.40
2022-12-13T23:44:21.076Z,17.23
2022-12-13T23:46:48.381Z,14.90
2022-12-13T23:49:15.465Z,15.10
2022-12-13T23:51:42.262Z,19.57
2022-12-13T23:54:14.432Z,16.37
2022-12-13T23:56:41.151Z,15.90
2022-12-13T23:59:07.893Z,20.13
